sensor_id;sensor_type;location;lat;lon;timestamp;temperature;humidity
29453;DHT22;16424;50.956;5.320;2024-01-11T00:02:23;-2.60;99.90
29453;DHT22;16424;50.956;5.320;2024-01-11T00:04:48;-2.60;99.90
29453;DHT22;16424;50.956;5.320;2024-01-11T00:07:14;-2.60;99.90
29453;DHT22;16424;50.956;5.320;2024-01-11T00:09:41;-2.60;99.90
29453;DHT22;16424;50.956;5.320;2024-01-11T00:12:07;-2.60;99.90
29453;DHT22;16424;50.956;5.320;2024-01-11T00:14:33;-2.60;99.90
29453;DHT22;16424;50.956;5.320;2024-01-11T00:16:58;-2.60;99.90
29453;DHT22;16424;50.956;5.320;2024-01-11T00:19:24;-2.70;99.90
29453;DHT22;16424;50.956;5.320;2024-01-11T00:21:50;-2.70;99.90
29453;DHT22;16424;50.956;5.320;2024-01-11T00:24:15;-2.60;99.90
29453;DHT22;16424;50.956;5.320;2024-01-11T00:26:41;-2.60;99.90
29453;DHT22;16424;50.956;5.320;2024-01-11T00:29:07;-2.60;99.90
29453;DHT22;16424;50.956;5.320;2024-01-11T00:31:33;-2.70;99.90
29453;DHT22;16424;50.956;5.320;2024-01-11T00:33:59;-2.70;99.90
29453;DHT22;16424;50.956;5.320;2024-01-11T00:36:25;-2.70;99.90
29453;DHT22;16424;50.956;5.320;2024-01-11T00:38:50;-2.60;99.90
29453;DHT22;16424;50.956;5.320;2024-01-11T00:41:16;-2.80;99.90
29453;DHT22;16424;50.956;5.320;2024-01-11T00:43:42;-2.90;99.90
29453;DHT22;16424;50.956;5.320;2024-01-11T00:46:08;-2.90;99.90
29453;DHT22;16424;50.956;5.320;2024-01-11T00:48:33;-2.90;99.90
29453;DHT22;16424;50.956;5.320;2024-01-11T00:50:59;-2.80;99.90
29453;DHT22;16424;50.956;5.320;2024-01-11T00:53:25;-2.90;99.90
29453;DHT22;16424;50.956;5.320;2024-01-11T00:55:56;-2.80;99.90
29453;DHT22;16424;50.956;5.320;2024-01-11T00:58:21;-2.90;99.90
29453;DHT22;16424;50.956;5.320;2024-01-11T01:00:47;-2.90;99.90
29453;DHT22;16424;50.956;5.320;2024-01-11T01:03:13;-2.90;99.90
29453;DHT22;16424;50.956;5.320;2024-01-11T01:05:39;-2.90;99.90
29453;DHT22;16424;50.956;5.320;2024-01-11T01:08:05;-3.00;99.90
29453;DHT22;16424;50.956;5.320;2024-01-11T01:10:30;-2.90;99.90
29453;DHT22;16424;50.956;5.320;2024-01-11T01:12:56;-2.90;99.90
29453;DHT22;16424;50.956;5.320;2024-01-11T01:15:22;-2.90;99.90
29453;DHT22;16424;50.956;5.320;2024-01-11T01:17:47;-2.80;99.90
29453;DHT22;16424;50.956;5.320;2024-01-11T01:20:13;-2.80;99.90
29453;DHT22;16424;50.956;5.320;2024-01-11T01:22:40;-2.90;99.90
29453;DHT22;16424;50.956;5.320;2024-01-11T01:25:06;-2.90;99.90
29453;DHT22;16424;50.956;5.320;2024-01-11T01:27:31;-2.90;99.90
29453;DHT22;16424;50.956;5.320;2024-01-11T01:29:57;-3.00;99.90
29453;DHT22;16424;50.956;5.320;2024-01-11T01:32:22;-3.00;99.90
29453;DHT22;16424;50.956;5.320;2024-01-11T01:34:48;-3.00;99.90
29453;DHT22;16424;50.956;5.320;2024-01-11T01:37:14;-3.10;99.90
29453;DHT22;16424;50.956;5.320;2024-01-11T01:39:39;-3.10;99.90
29453;DHT22;16424;50.956;5.320;2024-01-11T01:42:05;-3.10;99.90
29453;DHT22;16424;50.956;5.320;2024-01-11T01:44:33;-2.90;99.90
29453;DHT22;16424;50.956;5.320;2024-01-11T01:46:59;-3.10;99.90
29453;DHT22;16424;50.956;5.320;2024-01-11T01:49:24;-3.00;99.90
29453;DHT22;16424;50.956;5.320;2024-01-11T01:51:51;-3.10;99.90
29453;DHT22;16424;50.956;5.320;2024-01-11T01:54:18;-3.10;99.90
29453;DHT22;16424;50.956;5.320;2024-01-11T01:56:44;-3.10;99.90
29453;DHT22;16424;50.956;5.320;2024-01-11T01:59:09;-3.00;99.90
29453;DHT22;16424;50.956;5.320;2024-01-11T02:01:36;-3.10;99.90
29453;DHT22;16424;50.956;5.320;2024-01-11T02:04:02;-3.10;99.90
29453;DHT22;16424;50.956;5.320;2024-01-11T02:06:28;-3.00;99.90
29453;DHT22;16424;50.956;5.320;2024-01-11T02:08:56;-2.90;99.90
29453;DHT22;16424;50.956;5.320;2024-01-11T02:11:22;-3.00;99.90
29453;DHT22;16424;50.956;5.320;2024-01-11T02:13:50;-3.00;99.90
29453;DHT22;16424;50.956;5.320;2024-01-11T02:16:16;-3.10;99.90
29453;DHT22;16424;50.956;5.320;2024-01-11T02:18:42;-3.00;99.90
29453;DHT22;16424;50.956;5.320;2024-01-11T02:21:09;-2.90;99.90
29453;DHT22;16424;50.956;5.320;2024-01-11T02:23:43;-2.90;99.90
29453;DHT22;16424;50.956;5.320;2024-01-11T02:26:15;-2.90;99.90
29453;DHT22;16424;50.956;5.320;2024-01-11T02:28:45;-2.90;99.90
29453;DHT22;16424;50.956;5.320;2024-01-11T02:31:12;-2.70;99.90
29453;DHT22;16424;50.956;5.320;2024-01-11T02:33:39;-2.90;99.90
29453;DHT22;16424;50.956;5.320;2024-01-11T02:36:06;-2.80;99.90
29453;DHT22;16424;50.956;5.320;2024-01-11T02:38:32;-2.90;99.90
29453;DHT22;16424;50.956;5.320;2024-01-11T02:40:59;-2.90;99.90
29453;DHT22;16424;50.956;5.320;2024-01-11T02:43:25;-2.90;99.90
29453;DHT22;16424;50.956;5.320;2024-01-11T02:45:55;-2.90;99.90
29453;DHT22;16424;50.956;5.320;2024-01-11T02:48:21;-2.90;99.90
29453;DHT22;16424;50.956;5.320;2024-01-11T02:50:48;-2.90;99.90
29453;DHT22;16424;50.956;5.320;2024-01-11T02:53:14;-2.90;99.90
29453;DHT22;16424;50.956;5.320;2024-01-11T02:55:40;-2.90;99.90
29453;DHT22;16424;50.956;5.320;2024-01-11T02:58:05;-3.00;99.90
29453;DHT22;16424;50.956;5.320;2024-01-11T03:00:31;-3.00;99.90
29453;DHT22;16424;50.956;5.320;2024-01-11T03:02:57;-3.10;99.90
29453;DHT22;16424;50.956;5.320;2024-01-11T03:05:22;-3.10;99.90
29453;DHT22;16424;50.956;5.320;2024-01-11T03:07:48;-3.00;99.90
29453;DHT22;16424;50.956;5.320;2024-01-11T03:10:13;-3.10;99.90
29453;DHT22;16424;50.956;5.320;2024-01-11T03:12:40;-3.10;99.90
29453;DHT22;16424;50.956;5.320;2024-01-11T03:15:06;-3.00;99.90
29453;DHT22;16424;50.956;5.320;2024-01-11T03:17:32;-3.10;99.90
29453;DHT22;16424;50.956;5.320;2024-01-11T03:19:58;-3.10;99.90
29453;DHT22;16424;50.956;5.320;2024-01-11T03:22:25;-3.10;99.90
29453;DHT22;16424;50.956;5.320;2024-01-11T03:24:51;-3.20;99.90
29453;DHT22;16424;50.956;5.320;2024-01-11T03:27:17;-3.20;99.90
29453;DHT22;16424;50.956;5.320;2024-01-11T03:29:42;-3.30;99.90
29453;DHT22;16424;50.956;5.320;2024-01-11T03:32:08;-3.30;99.90
29453;DHT22;16424;50.956;5.320;2024-01-11T03:34:34;-3.40;99.90
29453;DHT22;16424;50.956;5.320;2024-01-11T03:36:59;-3.40;99.90
29453;DHT22;16424;50.956;5.320;2024-01-11T03:39:25;-3.50;99.90
29453;DHT22;16424;50.956;5.320;2024-01-11T03:41:51;-3.60;99.90
29453;DHT22;16424;50.956;5.320;2024-01-11T03:44:17;-3.60;99.90
29453;DHT22;16424;50.956;5.320;2024-01-11T03:46:42;-3.60;99.90
29453;DHT22;16424;50.956;5.320;2024-01-11T03:49:08;-3.70;99.90
29453;DHT22;16424;50.956;5.320;2024-01-11T03:51:34;-3.70;99.90
29453;DHT22;16424;50.956;5.320;2024-01-11T03:54:00;-3.80;99.90
29453;DHT22;16424;50.956;5.320;2024-01-11T03:56:25;-3.60;99.90
29453;DHT22;16424;50.956;5.320;2024-01-11T03:58:51;-3.90;99.90
29453;DHT22;16424;50.956;5.320;2024-01-11T04:01:17;-3.90;99.90
29453;DHT22;16424;50.956;5.320;2024-01-11T04:03:42;-3.90;99.90
29453;DHT22;16424;50.956;5.320;2024-01-11T04:06:08;-3.90;99.90
29453;DHT22;16424;50.956;5.320;2024-01-11T04:08:34;-3.90;99.90
29453;DHT22;16424;50.956;5.320;2024-01-11T04:11:02;-3.90;99.90
29453;DHT22;16424;50.956;5.320;2024-01-11T04:13:29;-3.90;99.90
29453;DHT22;16424;50.956;5.320;2024-01-11T04:15:55;-3.90;99.90
29453;DHT22;16424;50.956;5.320;2024-01-11T04:18:20;-3.90;99.90
29453;DHT22;16424;50.956;5.320;2024-01-11T04:20:46;-4.00;99.90
29453;DHT22;16424;50.956;5.320;2024-01-11T04:23:13;-3.70;99.90
29453;DHT22;16424;50.956;5.320;2024-01-11T04:25:38;-4.00;99.90
29453;DHT22;16424;50.956;5.320;2024-01-11T04:28:04;-4.00;99.90
29453;DHT22;16424;50.956;5.320;2024-01-11T04:30:30;-4.00;99.90
29453;DHT22;16424;50.956;5.320;2024-01-11T04:32:56;-4.10;99.90
29453;DHT22;16424;50.956;5.320;2024-01-11T04:35:22;-4.20;99.90
29453;DHT22;16424;50.956;5.320;2024-01-11T04:37:47;-4.10;99.90
29453;DHT22;16424;50.956;5.320;2024-01-11T04:40:13;-4.10;99.90
29453;DHT22;16424;50.956;5.320;2024-01-11T04:42:39;-4.20;99.90
29453;DHT22;16424;50.956;5.320;2024-01-11T04:45:04;-4.20;99.90
29453;DHT22;16424;50.956;5.320;2024-01-11T04:47:30;-4.00;99.90
29453;DHT22;16424;50.956;5.320;2024-01-11T04:49:56;-4.00;99.90
29453;DHT22;16424;50.956;5.320;2024-01-11T04:52:21;-4.00;99.90
29453;DHT22;16424;50.956;5.320;2024-01-11T04:54:47;-4.10;99.90
29453;DHT22;16424;50.956;5.320;2024-01-11T04:57:12;-4.00;99.90
29453;DHT22;16424;50.956;5.320;2024-01-11T04:59:38;-4.00;99.90
29453;DHT22;16424;50.956;5.320;2024-01-11T05:02:04;-3.90;99.90
29453;DHT22;16424;50.956;5.320;2024-01-11T05:04:29;-3.80;99.90
29453;DHT22;16424;50.956;5.320;2024-01-11T05:06:55;-3.80;99.90
29453;DHT22;16424;50.956;5.320;2024-01-11T05:09:21;-3.80;99.90
29453;DHT22;16424;50.956;5.320;2024-01-11T05:11:47;-3.70;99.90
29453;DHT22;16424;50.956;5.320;2024-01-11T05:14:12;-3.70;99.90
29453;DHT22;16424;50.956;5.320;2024-01-11T05:16:38;-3.70;99.90
29453;DHT22;16424;50.956;5.320;2024-01-11T05:19:04;-3.70;99.90
29453;DHT22;16424;50.956;5.320;2024-01-11T05:21:30;-3.70;99.90
29453;DHT22;16424;50.956;5.320;2024-01-11T05:23:55;-3.70;99.90
29453;DHT22;16424;50.956;5.320;2024-01-11T05:26:21;-3.60;99.90
29453;DHT22;16424;50.956;5.320;2024-01-11T05:28:47;-3.80;99.90
29453;DHT22;16424;50.956;5.320;2024-01-11T05:31:14;-3.80;99.90
29453;DHT22;16424;50.956;5.320;2024-01-11T05:33:43;-3.70;99.90
29453;DHT22;16424;50.956;5.320;2024-01-11T05:36:09;-3.70;99.90
29453;DHT22;16424;50.956;5.320;2024-01-11T05:38:35;-3.80;99.90
29453;DHT22;16424;50.956;5.320;2024-01-11T05:41:01;-3.80;99.90
29453;DHT22;16424;50.956;5.320;2024-01-11T05:43:27;-3.60;99.90
29453;DHT22;16424;50.956;5.320;2024-01-11T05:45:52;-3.90;99.90
29453;DHT22;16424;50.956;5.320;2024-01-11T05:48:18;-3.80;99.90
29453;DHT22;16424;50.956;5.320;2024-01-11T05:50:44;-3.90;99.90
29453;DHT22;16424;50.956;5.320;2024-01-11T05:53:11;-3.90;99.90
29453;DHT22;16424;50.956;5.320;2024-01-11T05:55:36;-4.00;99.90
29453;DHT22;16424;50.956;5.320;2024-01-11T05:58:03;-3.90;99.90
29453;DHT22;16424;50.956;5.320;2024-01-11T06:00:28;-3.90;99.90
29453;DHT22;16424;50.956;5.320;2024-01-11T06:02:54;-3.80;99.90
29453;DHT22;16424;50.956;5.320;2024-01-11T06:05:20;-3.80;99.90
29453;DHT22;16424;50.956;5.320;2024-01-11T06:07:46;-3.80;99.90
29453;DHT22;16424;50.956;5.320;2024-01-11T06:10:13;-3.90;99.90
29453;DHT22;16424;50.956;5.320;2024-01-11T06:12:39;-3.80;99.90
29453;DHT22;16424;50.956;5.320;2024-01-11T06:15:05;-3.90;99.90
29453;DHT22;16424;50.956;5.320;2024-01-11T06:17:31;-3.90;99.90
29453;DHT22;16424;50.956;5.320;2024-01-11T06:19:57;-3.90;99.90
29453;DHT22;16424;50.956;5.320;2024-01-11T06:22:22;-3.90;99.90
29453;DHT22;16424;50.956;5.320;2024-01-11T06:24:48;-3.90;99.90
29453;DHT22;16424;50.956;5.320;2024-01-11T06:27:14;-3.90;99.90
29453;DHT22;16424;50.956;5.320;2024-01-11T06:29:39;-3.80;99.90
29453;DHT22;16424;50.956;5.320;2024-01-11T06:32:05;-3.90;99.90
29453;DHT22;16424;50.956;5.320;2024-01-11T06:34:31;-3.90;99.90
29453;DHT22;16424;50.956;5.320;2024-01-11T06:36:57;-3.90;99.90
29453;DHT22;16424;50.956;5.320;2024-01-11T06:39:23;-3.90;99.90
29453;DHT22;16424;50.956;5.320;2024-01-11T06:41:48;-4.00;99.90
29453;DHT22;16424;50.956;5.320;2024-01-11T06:44:14;-4.00;99.90
29453;DHT22;16424;50.956;5.320;2024-01-11T06:46:40;-4.00;99.90
29453;DHT22;16424;50.956;5.320;2024-01-11T06:49:07;-4.00;99.90
29453;DHT22;16424;50.956;5.320;2024-01-11T06:51:33;-3.80;99.90
29453;DHT22;16424;50.956;5.320;2024-01-11T06:53:59;-4.00;99.90
29453;DHT22;16424;50.956;5.320;2024-01-11T06:56:27;-4.00;99.90
29453;DHT22;16424;50.956;5.320;2024-01-11T06:58:54;-3.90;99.90
29453;DHT22;16424;50.956;5.320;2024-01-11T07:01:19;-3.90;99.90
29453;DHT22;16424;50.956;5.320;2024-01-11T07:03:45;-4.00;99.90
29453;DHT22;16424;50.956;5.320;2024-01-11T07:06:11;-3.90;99.90
29453;DHT22;16424;50.956;5.320;2024-01-11T07:08:37;-3.90;99.90
29453;DHT22;16424;50.956;5.320;2024-01-11T07:11:03;-4.00;99.90
29453;DHT22;16424;50.956;5.320;2024-01-11T07:13:29;-4.10;99.90
29453;DHT22;16424;50.956;5.320;2024-01-11T07:15:55;-4.10;99.90
29453;DHT22;16424;50.956;5.320;2024-01-11T07:18:22;-4.10;99.90
29453;DHT22;16424;50.956;5.320;2024-01-11T07:20:48;-4.00;99.90
29453;DHT22;16424;50.956;5.320;2024-01-11T07:23:14;-4.10;99.90
29453;DHT22;16424;50.956;5.320;2024-01-11T07:25:40;-4.10;99.90
29453;DHT22;16424;50.956;5.320;2024-01-11T07:28:07;-4.10;99.90
29453;DHT22;16424;50.956;5.320;2024-01-11T07:30:32;-4.20;99.90
29453;DHT22;16424;50.956;5.320;2024-01-11T07:32:58;-4.20;99.90
29453;DHT22;16424;50.956;5.320;2024-01-11T07:35:24;-4.10;99.90
29453;DHT22;16424;50.956;5.320;2024-01-11T07:37:50;-3.90;99.90
29453;DHT22;16424;50.956;5.320;2024-01-11T07:40:16;-4.00;99.90
29453;DHT22;16424;50.956;5.320;2024-01-11T07:42:42;-4.00;99.90
29453;DHT22;16424;50.956;5.320;2024-01-11T07:45:08;-3.80;99.90
29453;DHT22;16424;50.956;5.320;2024-01-11T07:47:38;-4.00;99.90
29453;DHT22;16424;50.956;5.320;2024-01-11T07:50:07;-4.00;99.90
29453;DHT22;16424;50.956;5.320;2024-01-11T07:52:35;-4.00;99.90
29453;DHT22;16424;50.956;5.320;2024-01-11T07:55:02;-4.00;99.90
29453;DHT22;16424;50.956;5.320;2024-01-11T07:57:36;-4.00;99.90
29453;DHT22;16424;50.956;5.320;2024-01-11T08:00:03;-4.10;99.90
29453;DHT22;16424;50.956;5.320;2024-01-11T08:02:29;-4.10;99.90
29453;DHT22;16424;50.956;5.320;2024-01-11T08:04:55;-4.10;99.90
29453;DHT22;16424;50.956;5.320;2024-01-11T08:07:20;-4.10;99.90
29453;DHT22;16424;50.956;5.320;2024-01-11T08:09:47;-4.10;99.90
29453;DHT22;16424;50.956;5.320;2024-01-11T08:12:16;-3.90;99.90
29453;DHT22;16424;50.956;5.320;2024-01-11T08:14:41;-3.60;99.90
29453;DHT22;16424;50.956;5.320;2024-01-11T08:17:08;-3.30;99.90
29453;DHT22;16424;50.956;5.320;2024-01-11T08:19:34;-2.90;99.90
29453;DHT22;16424;50.956;5.320;2024-01-11T08:22:00;-2.60;99.90
29453;DHT22;16424;50.956;5.320;2024-01-11T08:24:25;-2.30;99.90
29453;DHT22;16424;50.956;5.320;2024-01-11T08:26:51;-1.80;99.90
29453;DHT22;16424;50.956;5.320;2024-01-11T08:29:17;-1.60;99.90
29453;DHT22;16424;50.956;5.320;2024-01-11T08:31:45;-1.40;99.90
29453;DHT22;16424;50.956;5.320;2024-01-11T08:34:11;-1.40;99.90
29453;DHT22;16424;50.956;5.320;2024-01-11T08:36:37;-1.30;99.90
29453;DHT22;16424;50.956;5.320;2024-01-11T08:39:07;-1.10;99.90
29453;DHT22;16424;50.956;5.320;2024-01-11T08:41:37;-0.90;99.90
29453;DHT22;16424;50.956;5.320;2024-01-11T08:44:04;-0.60;99.90
29453;DHT22;16424;50.956;5.320;2024-01-11T08:46:33;-0.40;99.90
29453;DHT22;16424;50.956;5.320;2024-01-11T08:48:59;-0.40;99.90
29453;DHT22;16424;50.956;5.320;2024-01-11T08:51:25;-0.40;99.90
29453;DHT22;16424;50.956;5.320;2024-01-11T08:53:51;-0.10;99.90
29453;DHT22;16424;50.956;5.320;2024-01-11T08:56:21;0.30;99.90
29453;DHT22;16424;50.956;5.320;2024-01-11T08:58:47;0.40;99.90
29453;DHT22;16424;50.956;5.320;2024-01-11T09:01:13;0.10;99.90
29453;DHT22;16424;50.956;5.320;2024-01-11T09:03:39;0.40;99.90
29453;DHT22;16424;50.956;5.320;2024-01-11T09:06:05;0.90;99.90
29453;DHT22;16424;50.956;5.320;2024-01-11T09:08:31;1.30;99.90
29453;DHT22;16424;50.956;5.320;2024-01-11T09:10:57;1.70;99.90
29453;DHT22;16424;50.956;5.320;2024-01-11T09:13:23;1.80;99.90
29453;DHT22;16424;50.956;5.320;2024-01-11T09:15:49;1.60;99.90
29453;DHT22;16424;50.956;5.320;2024-01-11T09:18:15;1.70;99.90
29453;DHT22;16424;50.956;5.320;2024-01-11T09:20:41;1.90;99.90
29453;DHT22;16424;50.956;5.320;2024-01-11T09:23:07;1.20;99.90
29453;DHT22;16424;50.956;5.320;2024-01-11T09:25:32;0.90;99.90
29453;DHT22;16424;50.956;5.320;2024-01-11T09:27:59;0.60;99.90
29453;DHT22;16424;50.956;5.320;2024-01-11T09:30:25;0.80;99.90
29453;DHT22;16424;50.956;5.320;2024-01-11T09:32:51;0.90;99.90
29453;DHT22;16424;50.956;5.320;2024-01-11T09:35:17;0.70;99.90
29453;DHT22;16424;50.956;5.320;2024-01-11T09:37:43;0.80;99.90
29453;DHT22;16424;50.956;5.320;2024-01-11T09:40:11;1.60;99.90
29453;DHT22;16424;50.956;5.320;2024-01-11T09:42:37;2.00;99.90
29453;DHT22;16424;50.956;5.320;2024-01-11T09:45:13;2.40;99.90
29453;DHT22;16424;50.956;5.320;2024-01-11T09:47:41;2.40;99.90
29453;DHT22;16424;50.956;5.320;2024-01-11T09:50:08;2.40;99.90
29453;DHT22;16424;50.956;5.320;2024-01-11T09:52:34;1.70;99.90
29453;DHT22;16424;50.956;5.320;2024-01-11T09:55:00;1.20;99.90
29453;DHT22;16424;50.956;5.320;2024-01-11T09:57:30;0.80;99.90
29453;DHT22;16424;50.956;5.320;2024-01-11T09:59:58;0.40;99.90
29453;DHT22;16424;50.956;5.320;2024-01-11T10:02:24;0.10;99.90
29453;DHT22;16424;50.956;5.320;2024-01-11T10:04:52;-0.30;99.90
29453;DHT22;16424;50.956;5.320;2024-01-11T10:07:22;-0.40;99.90
29453;DHT22;16424;50.956;5.320;2024-01-11T10:09:48;-0.50;99.90
29453;DHT22;16424;50.956;5.320;2024-01-11T10:12:15;-0.60;99.90
29453;DHT22;16424;50.956;5.320;2024-01-11T10:14:40;-0.70;99.90
29453;DHT22;16424;50.956;5.320;2024-01-11T10:17:07;-0.70;99.90
29453;DHT22;16424;50.956;5.320;2024-01-11T10:19:32;-0.80;99.90
29453;DHT22;16424;50.956;5.320;2024-01-11T10:21:58;-0.80;99.90
29453;DHT22;16424;50.956;5.320;2024-01-11T10:24:24;-0.90;99.90
29453;DHT22;16424;50.956;5.320;2024-01-11T10:26:57;-1.00;99.90
29453;DHT22;16424;50.956;5.320;2024-01-11T10:29:29;-1.00;99.90
29453;DHT22;16424;50.956;5.320;2024-01-11T10:31:55;-0.90;99.90
29453;DHT22;16424;50.956;5.320;2024-01-11T10:34:23;-0.90;99.90
29453;DHT22;16424;50.956;5.320;2024-01-11T10:36:52;-0.80;99.90
29453;DHT22;16424;50.956;5.320;2024-01-11T10:39:25;-0.70;99.90
29453;DHT22;16424;50.956;5.320;2024-01-11T10:41:56;-0.60;99.90
29453;DHT22;16424;50.956;5.320;2024-01-11T10:44:26;-0.50;99.90
29453;DHT22;16424;50.956;5.320;2024-01-11T10:46:56;-0.50;99.90
29453;DHT22;16424;50.956;5.320;2024-01-11T10:49:23;-0.40;99.90
29453;DHT22;16424;50.956;5.320;2024-01-11T10:52:02;-0.30;99.90
29453;DHT22;16424;50.956;5.320;2024-01-11T10:54:28;-0.20;99.90
29453;DHT22;16424;50.956;5.320;2024-01-11T10:56:56;-0.10;99.90
29453;DHT22;16424;50.956;5.320;2024-01-11T10:59:26;0.10;99.90
29453;DHT22;16424;50.956;5.320;2024-01-11T11:01:57;0.10;99.90
29453;DHT22;16424;50.956;5.320;2024-01-11T11:04:24;0.30;99.90
29453;DHT22;16424;50.956;5.320;2024-01-11T11:06:56;0.40;99.90
29453;DHT22;16424;50.956;5.320;2024-01-11T11:09:24;0.50;99.90
29453;DHT22;16424;50.956;5.320;2024-01-11T11:11:53;0.50;99.90
29453;DHT22;16424;50.956;5.320;2024-01-11T11:14:19;0.50;99.90
29453;DHT22;16424;50.956;5.320;2024-01-11T11:16:46;0.60;99.90
29453;DHT22;16424;50.956;5.320;2024-01-11T11:19:12;0.80;99.90
29453;DHT22;16424;50.956;5.320;2024-01-11T11:21:44;0.80;99.90
29453;DHT22;16424;50.956;5.320;2024-01-11T11:24:11;0.90;99.90
29453;DHT22;16424;50.956;5.320;2024-01-11T11:26:37;1.10;99.90
29453;DHT22;16424;50.956;5.320;2024-01-11T11:29:05;1.20;99.90
29453;DHT22;16424;50.956;5.320;2024-01-11T11:34:05;1.20;99.90
29453;DHT22;16424;50.956;5.320;2024-01-11T11:36:33;1.20;99.90
29453;DHT22;16424;50.956;5.320;2024-01-11T11:39:00;1.20;99.90
29453;DHT22;16424;50.956;5.320;2024-01-11T11:41:27;1.40;99.90
29453;DHT22;16424;50.956;5.320;2024-01-11T11:43:53;1.40;99.90
29453;DHT22;16424;50.956;5.320;2024-01-11T11:46:19;1.50;99.90
29453;DHT22;16424;50.956;5.320;2024-01-11T11:48:51;1.50;99.90
29453;DHT22;16424;50.956;5.320;2024-01-11T11:51:19;1.50;99.90
29453;DHT22;16424;50.956;5.320;2024-01-11T11:53:47;1.60;99.90
29453;DHT22;16424;50.956;5.320;2024-01-11T11:56:14;1.60;99.90
29453;DHT22;16424;50.956;5.320;2024-01-11T11:58:43;1.50;99.90
29453;DHT22;16424;50.956;5.320;2024-01-11T12:01:09;1.50;99.90
29453;DHT22;16424;50.956;5.320;2024-01-11T12:03:37;1.50;99.90
29453;DHT22;16424;50.956;5.320;2024-01-11T12:06:09;1.50;99.90
29453;DHT22;16424;50.956;5.320;2024-01-11T12:08:42;1.70;99.90
29453;DHT22;16424;50.956;5.320;2024-01-11T12:11:07;1.90;99.90
29453;DHT22;16424;50.956;5.320;2024-01-11T12:13:33;1.90;99.90
29453;DHT22;16424;50.956;5.320;2024-01-11T12:15:59;1.90;99.90
29453;DHT22;16424;50.956;5.320;2024-01-11T12:18:25;2.00;99.90
29453;DHT22;16424;50.956;5.320;2024-01-11T12:20:51;2.00;99.90
29453;DHT22;16424;50.956;5.320;2024-01-11T12:23:19;1.90;99.90
29453;DHT22;16424;50.956;5.320;2024-01-11T12:25:46;2.00;99.90
29453;DHT22;16424;50.956;5.320;2024-01-11T12:28:12;2.10;99.90
29453;DHT22;16424;50.956;5.320;2024-01-11T12:30:38;2.00;99.90
29453;DHT22;16424;50.956;5.320;2024-01-11T12:33:04;1.90;99.90
29453;DHT22;16424;50.956;5.320;2024-01-11T12:35:31;1.80;99.90
29453;DHT22;16424;50.956;5.320;2024-01-11T12:38:07;1.90;99.90
29453;DHT22;16424;50.956;5.320;2024-01-11T12:40:33;1.80;99.90
29453;DHT22;16424;50.956;5.320;2024-01-11T12:43:00;1.90;99.90
29453;DHT22;16424;50.956;5.320;2024-01-11T12:45:26;1.90;99.90
29453;DHT22;16424;50.956;5.320;2024-01-11T12:47:53;2.00;99.90
29453;DHT22;16424;50.956;5.320;2024-01-11T12:50:20;2.00;99.90
29453;DHT22;16424;50.956;5.320;2024-01-11T12:52:46;2.00;99.90
29453;DHT22;16424;50.956;5.320;2024-01-11T12:55:19;2.10;99.90
29453;DHT22;16424;50.956;5.320;2024-01-11T12:57:45;2.20;99.90
29453;DHT22;16424;50.956;5.320;2024-01-11T13:00:14;2.30;99.90
29453;DHT22;16424;50.956;5.320;2024-01-11T13:02:41;2.30;99.90
29453;DHT22;16424;50.956;5.320;2024-01-11T13:05:11;2.40;99.90
29453;DHT22;16424;50.956;5.320;2024-01-11T13:07:37;2.50;99.90
29453;DHT22;16424;50.956;5.320;2024-01-11T13:10:04;2.50;99.90
29453;DHT22;16424;50.956;5.320;2024-01-11T13:12:30;2.40;99.90
29453;DHT22;16424;50.956;5.320;2024-01-11T13:14:55;2.40;99.90
29453;DHT22;16424;50.956;5.320;2024-01-11T13:17:21;2.50;99.90
29453;DHT22;16424;50.956;5.320;2024-01-11T13:19:47;2.60;99.90
29453;DHT22;16424;50.956;5.320;2024-01-11T13:22:13;2.60;99.90
29453;DHT22;16424;50.956;5.320;2024-01-11T13:24:39;2.70;99.90
29453;DHT22;16424;50.956;5.320;2024-01-11T13:27:04;2.80;99.90
29453;DHT22;16424;50.956;5.320;2024-01-11T13:29:30;2.80;99.90
29453;DHT22;16424;50.956;5.320;2024-01-11T13:31:56;2.60;99.90
29453;DHT22;16424;50.956;5.320;2024-01-11T13:34:21;2.50;99.90
29453;DHT22;16424;50.956;5.320;2024-01-11T13:36:47;2.50;99.90
29453;DHT22;16424;50.956;5.320;2024-01-11T13:39:13;2.60;99.90
29453;DHT22;16424;50.956;5.320;2024-01-11T13:41:39;2.50;99.90
29453;DHT22;16424;50.956;5.320;2024-01-11T13:44:06;2.40;99.90
29453;DHT22;16424;50.956;5.320;2024-01-11T13:46:32;2.40;99.90
29453;DHT22;16424;50.956;5.320;2024-01-11T13:48:58;2.50;99.90
29453;DHT22;16424;50.956;5.320;2024-01-11T13:51:24;2.60;99.90
29453;DHT22;16424;50.956;5.320;2024-01-11T13:53:50;2.60;99.90
29453;DHT22;16424;50.956;5.320;2024-01-11T13:56:15;2.70;99.90
29453;DHT22;16424;50.956;5.320;2024-01-11T13:58:41;2.70;99.90
29453;DHT22;16424;50.956;5.320;2024-01-11T14:01:07;2.80;99.90
29453;DHT22;16424;50.956;5.320;2024-01-11T14:03:33;2.80;99.90
29453;DHT22;16424;50.956;5.320;2024-01-11T14:05:59;2.90;99.90
29453;DHT22;16424;50.956;5.320;2024-01-11T14:08:25;3.00;99.90
29453;DHT22;16424;50.956;5.320;2024-01-11T14:10:51;2.80;99.90
29453;DHT22;16424;50.956;5.320;2024-01-11T14:13:17;2.60;99.90
29453;DHT22;16424;50.956;5.320;2024-01-11T14:15:43;2.60;99.90
29453;DHT22;16424;50.956;5.320;2024-01-11T14:18:08;2.70;99.90
29453;DHT22;16424;50.956;5.320;2024-01-11T14:20:35;2.60;99.90
29453;DHT22;16424;50.956;5.320;2024-01-11T14:23:01;2.70;99.90
29453;DHT22;16424;50.956;5.320;2024-01-11T14:25:26;2.60;99.90
29453;DHT22;16424;50.956;5.320;2024-01-11T14:27:52;2.50;99.90
29453;DHT22;16424;50.956;5.320;2024-01-11T14:30:18;2.60;99.90
29453;DHT22;16424;50.956;5.320;2024-01-11T14:32:44;2.60;99.90
29453;DHT22;16424;50.956;5.320;2024-01-11T14:35:10;2.60;99.90
29453;DHT22;16424;50.956;5.320;2024-01-11T14:37:38;2.70;99.90
29453;DHT22;16424;50.956;5.320;2024-01-11T14:40:07;2.70;99.90
29453;DHT22;16424;50.956;5.320;2024-01-11T14:42:36;2.50;99.90
29453;DHT22;16424;50.956;5.320;2024-01-11T14:45:03;2.50;99.90
29453;DHT22;16424;50.956;5.320;2024-01-11T14:47:35;2.50;99.90
29453;DHT22;16424;50.956;5.320;2024-01-11T14:50:01;2.40;99.90
29453;DHT22;16424;50.956;5.320;2024-01-11T14:52:29;2.30;99.90
29453;DHT22;16424;50.956;5.320;2024-01-11T14:54:56;2.30;99.90
29453;DHT22;16424;50.956;5.320;2024-01-11T14:57:21;2.40;99.90
29453;DHT22;16424;50.956;5.320;2024-01-11T14:59:47;2.40;99.90
29453;DHT22;16424;50.956;5.320;2024-01-11T15:02:13;2.50;99.90
29453;DHT22;16424;50.956;5.320;2024-01-11T15:04:38;2.40;99.90
29453;DHT22;16424;50.956;5.320;2024-01-11T15:07:04;2.20;99.90
29453;DHT22;16424;50.956;5.320;2024-01-11T15:09:30;2.10;99.90
29453;DHT22;16424;50.956;5.320;2024-01-11T15:11:56;2.10;99.90
29453;DHT22;16424;50.956;5.320;2024-01-11T15:14:21;2.20;99.90
29453;DHT22;16424;50.956;5.320;2024-01-11T15:16:47;2.20;99.90
29453;DHT22;16424;50.956;5.320;2024-01-11T15:19:13;2.10;99.90
29453;DHT22;16424;50.956;5.320;2024-01-11T15:21:39;2.10;99.90
29453;DHT22;16424;50.956;5.320;2024-01-11T15:24:06;2.10;99.90
29453;DHT22;16424;50.956;5.320;2024-01-11T15:26:32;2.10;99.90
29453;DHT22;16424;50.956;5.320;2024-01-11T15:28:58;2.20;99.90
29453;DHT22;16424;50.956;5.320;2024-01-11T15:31:24;2.10;99.90
29453;DHT22;16424;50.956;5.320;2024-01-11T15:33:51;2.00;99.90
29453;DHT22;16424;50.956;5.320;2024-01-11T15:36:17;1.80;99.90